Terminal Aerodrome Forecast
Issued by NWS Bismarck, ND

Home | Current Version | Previous Version | Text Only | Print | Product List | Glossary Off
Versions: 1 2 3 4 5 6 7 8 9 10 11 12 13 14 15 16 17 18 19 20 21

003
FTUS43 KBIS 200319 AAC
TAFBIS
TAF AMD
KBIS 200319Z 2003/2024 15004KT P6SM FEW140
     FM200400 13004KT 1SM BR OVC006
     FM200500 14004KT 1/2SM FZFG VV004
     FM201600 VRB03KT 1SM BR BKN003
     FM201900 VRB03KT 3SM BR BKN008=

USA.gov is the U.S. government's official web portal to all federal, state and local government web resources and services.